Flag for Germany

Past Weather in 53°22'21.9"N, 10°36'12.3"E, Germany — Yesterday and Last 2 Weeks

Currently: 68 °F. Passing clouds. (Weather station: Hamburg-Fuhlsbuettel, Germany). See more current weather

Past Weather in 53°22'21.9"N, 10°36'12.3"E — Graph

°F

53°22'21.9"N, 10°36'12.3"E Temperature Yesterday

Maximum temperature yesterday: 70 °F (at 1:20 pm)
Minimum temperature yesterday: 52 °F (at 4:20 am)
Average temperature yesterday: 61 °F

High & Low Weather Summary for the Past Weeks

 TemperatureHumidityPressure
High70 °F (Jun 14, 4:50 pm)100% (Jun 4, 4:20 am)30.07 "Hg (Jun 4, 4:20 am)
Low43 °F (Jun 7, 4:20 am)39% (Jun 6, 2:50 pm)29.50 "Hg (Jun 15, 7:50 am)
Average57 °F76%29.85 "Hg
* Reported Jun 3 9:20 am — Jun 18 9:20 am, 53°22'21.9"N, 10°36'12.3"E. Weather by CustomWeather, © 2024

Note: Actual official high and low records may vary slightly from our data, if they occured in-between our weather recording intervals... More about our weather records

53°22'21.9"N, 10°36'12.3"E Weather History for the Previous 24 Hours

Scroll right to see more
 ConditionsComfort  
Time TempWeatherWind HumidityBarometerVisibility
9:20 am
Tue, Jun 18
66 °FPassing clouds.5 mph56%29.98 "HgN/A
8:50 am64 °FSunny.1 mph60%29.98 "Hg10 mi
8:20 am64 °FSunny.1 mph60%29.98 "Hg10 mi
7:50 am63 °FSunny.1 mph73%29.98 "Hg10 mi
7:20 am61 °FSunny.1 mph77%29.98 "Hg10 mi
6:20 am52 °FClear.1 mph100%29.98 "Hg6 mi
5:50 am50 °FFog.1 mph100%29.95 "Hg1 mi
5:20 am50 °FFog.2 mph100%29.95 "Hg0 mi
4:50 am50 °FFog.1 mph100%29.95 "Hg0 mi
4:20 am52 °FFog.No wind100%29.95 "Hg1 mi
3:20 am54 °FFog.1 mph100%29.95 "Hg1 mi
2:50 am55 °FFog.1 mph100%29.95 "Hg1 mi
1:50 am57 °FPassing clouds.2 mph100%29.95 "HgN/A
1:20 am57 °FClear.3 mph100%29.95 "Hg10 mi
12:50 am57 °FClear.2 mph100%29.95 "Hg10 mi
12:20 am59 °FPassing clouds.3 mph94%29.95 "HgN/A
11:50 pm
Mon, Jun 17
57 °FClear.1 mph100%29.92 "Hg10 mi
11:20 pm57 °FClear.2 mph100%29.92 "Hg10 mi
10:50 pm57 °FClear.1 mph100%29.92 "Hg10 mi
10:20 pm59 °FPassing clouds.2 mph94%29.92 "HgN/A
9:50 pm61 °FPassing clouds.3 mph88%29.89 "HgN/A
9:20 pm61 °FPassing clouds.2 mph94%29.89 "HgN/A
8:50 pm61 °FSunny.2 mph94%29.89 "Hg10 mi
8:20 pm64 °FScattered showers. Passing clouds.3 mph78%29.89 "HgN/A
7:50 pm63 °FSprinkles. Passing clouds.2 mph83%29.89 "HgN/A
7:20 pm61 °FRain showers. Scattered clouds.7 mph88%29.89 "HgN/A
6:20 pm66 °FPassing clouds.10 mph64%29.86 "HgN/A
5:50 pm68 °FSunny.10 mph60%29.86 "Hg10 mi
5:20 pm68 °FPassing clouds.17 mph60%29.86 "HgN/A
4:20 pm70 °FPassing clouds.17 mph53%29.86 "HgN/A
3:20 pm70 °FPartly sunny.12 mph53%29.86 "HgN/A
2:50 pm70 °FPartly sunny.8 mph53%29.86 "HgN/A
2:20 pm70 °FScattered showers. Scattered clouds.12 mph53%29.86 "HgN/A
1:50 pm70 °FPassing clouds.12 mph53%29.86 "HgN/A
1:20 pm70 °FScattered clouds.9 mph57%29.83 "HgN/A
12:50 pm66 °FScattered clouds.9 mph64%29.86 "HgN/A
12:20 pm66 °FBroken clouds.9 mph64%29.86 "HgN/A
11:50 am66 °FBroken clouds.7 mph73%29.86 "HgN/A
11:20 am64 °FPassing clouds.7 mph83%29.86 "HgN/A
Weather by CustomWeather, © 2024

See weather overview